sensor_id;sensor_type;location;lat;lon;timestamp;temperature;humidity
9329;DHT22;4703;48.748;19.142;2023-11-21T00:00:04;5.40;99.90
9329;DHT22;4703;48.748;19.142;2023-11-21T00:02:37;5.30;99.90
9329;DHT22;4703;48.748;19.142;2023-11-21T00:05:10;5.30;99.90
9329;DHT22;4703;48.748;19.142;2023-11-21T00:07:41;5.30;99.90
9329;DHT22;4703;48.748;19.142;2023-11-21T00:10:09;5.30;99.90
9329;DHT22;4703;48.748;19.142;2023-11-21T00:12:37;5.30;99.90
9329;DHT22;4703;48.748;19.142;2023-11-21T00:15:05;5.30;99.90
9329;DHT22;4703;48.748;19.142;2023-11-21T00:17:32;5.30;99.90
9329;DHT22;4703;48.748;19.142;2023-11-21T00:19:59;5.30;99.90
9329;DHT22;4703;48.748;19.142;2023-11-21T00:22:26;5.30;99.90
9329;DHT22;4703;48.748;19.142;2023-11-21T00:24:53;5.30;99.90
9329;DHT22;4703;48.748;19.142;2023-11-21T00:27:20;5.30;99.90
9329;DHT22;4703;48.748;19.142;2023-11-21T00:29:47;5.20;99.90
9329;DHT22;4703;48.748;19.142;2023-11-21T00:32:14;5.20;99.90
9329;DHT22;4703;48.748;19.142;2023-11-21T00:34:41;5.80;99.90
9329;DHT22;4703;48.748;19.142;2023-11-21T00:37:09;5.20;99.90
9329;DHT22;4703;48.748;19.142;2023-11-21T00:39:36;5.20;99.90
9329;DHT22;4703;48.748;19.142;2023-11-21T00:42:03;5.20;99.90
9329;DHT22;4703;48.748;19.142;2023-11-21T00:44:31;5.10;99.90
9329;DHT22;4703;48.748;19.142;2023-11-21T00:46:58;5.10;99.90
9329;DHT22;4703;48.748;19.142;2023-11-21T00:49:25;6.70;99.90
9329;DHT22;4703;48.748;19.142;2023-11-21T00:51:53;5.00;99.90
9329;DHT22;4703;48.748;19.142;2023-11-21T00:54:20;5.00;99.90
9329;DHT22;4703;48.748;19.142;2023-11-21T00:56:47;5.00;99.90
9329;DHT22;4703;48.748;19.142;2023-11-21T00:59:14;5.00;99.90
9329;DHT22;4703;48.748;19.142;2023-11-21T01:01:41;5.00;99.90
9329;DHT22;4703;48.748;19.142;2023-11-21T01:04:08;4.90;99.90
9329;DHT22;4703;48.748;19.142;2023-11-21T01:06:35;4.90;99.90
9329;DHT22;4703;48.748;19.142;2023-11-21T01:09:02;4.80;99.90
9329;DHT22;4703;48.748;19.142;2023-11-21T01:11:35;4.80;99.90
9329;DHT22;4703;48.748;19.142;2023-11-21T01:14:04;5.90;99.90
9329;DHT22;4703;48.748;19.142;2023-11-21T01:16:31;4.80;99.90
9329;DHT22;4703;48.748;19.142;2023-11-21T01:19:01;4.80;99.90
9329;DHT22;4703;48.748;19.142;2023-11-21T01:21:28;4.80;99.90
9329;DHT22;4703;48.748;19.142;2023-11-21T01:23:55;4.70;99.90
9329;DHT22;4703;48.748;19.142;2023-11-21T01:26:22;4.70;99.90
9329;DHT22;4703;48.748;19.142;2023-11-21T01:28:49;4.70;99.90
9329;DHT22;4703;48.748;19.142;2023-11-21T01:31:17;6.40;99.90
9329;DHT22;4703;48.748;19.142;2023-11-21T01:33:44;4.70;99.90
9329;DHT22;4703;48.748;19.142;2023-11-21T01:36:11;4.70;99.90
9329;DHT22;4703;48.748;19.142;2023-11-21T01:38:38;4.60;99.90
9329;DHT22;4703;48.748;19.142;2023-11-21T01:41:05;4.60;99.90
9329;DHT22;4703;48.748;19.142;2023-11-21T01:43:32;4.70;99.90
9329;DHT22;4703;48.748;19.142;2023-11-21T01:46:00;4.60;99.90
9329;DHT22;4703;48.748;19.142;2023-11-21T01:48:27;4.70;99.90
9329;DHT22;4703;48.748;19.142;2023-11-21T01:50:55;4.70;99.90
9329;DHT22;4703;48.748;19.142;2023-11-21T01:53:24;4.70;99.90
9329;DHT22;4703;48.748;19.142;2023-11-21T01:55:53;4.70;99.90
9329;DHT22;4703;48.748;19.142;2023-11-21T01:58:24;4.70;99.90
9329;DHT22;4703;48.748;19.142;2023-11-21T02:00:51;4.70;99.90
9329;DHT22;4703;48.748;19.142;2023-11-21T02:03:21;4.60;99.90
9329;DHT22;4703;48.748;19.142;2023-11-21T02:05:48;4.60;99.90
9329;DHT22;4703;48.748;19.142;2023-11-21T02:08:15;4.60;99.90
9329;DHT22;4703;48.748;19.142;2023-11-21T02:10:42;4.60;99.90
9329;DHT22;4703;48.748;19.142;2023-11-21T02:13:09;4.60;99.90
9329;DHT22;4703;48.748;19.142;2023-11-21T02:15:38;4.60;99.90
9329;DHT22;4703;48.748;19.142;2023-11-21T02:18:05;4.50;99.90
9329;DHT22;4703;48.748;19.142;2023-11-21T02:20:33;4.50;99.90
9329;DHT22;4703;48.748;19.142;2023-11-21T02:23:02;6.80;99.90
9329;DHT22;4703;48.748;19.142;2023-11-21T02:25:33;4.50;99.90
9329;DHT22;4703;48.748;19.142;2023-11-21T02:28:02;4.40;99.90
9329;DHT22;4703;48.748;19.142;2023-11-21T02:30:30;4.40;99.90
9329;DHT22;4703;48.748;19.142;2023-11-21T02:33:02;4.40;99.90
9329;DHT22;4703;48.748;19.142;2023-11-21T02:35:29;4.30;99.90
9329;DHT22;4703;48.748;19.142;2023-11-21T02:37:58;4.30;99.90
9329;DHT22;4703;48.748;19.142;2023-11-21T02:40:25;4.30;99.90
9329;DHT22;4703;48.748;19.142;2023-11-21T02:42:54;4.30;99.90
9329;DHT22;4703;48.748;19.142;2023-11-21T02:45:21;4.20;99.90
9329;DHT22;4703;48.748;19.142;2023-11-21T02:47:49;4.20;99.90
9329;DHT22;4703;48.748;19.142;2023-11-21T02:50:16;4.20;99.90
9329;DHT22;4703;48.748;19.142;2023-11-21T02:52:47;4.20;99.90
9329;DHT22;4703;48.748;19.142;2023-11-21T02:55:14;6.70;99.90
9329;DHT22;4703;48.748;19.142;2023-11-21T02:57:41;4.10;99.90
9329;DHT22;4703;48.748;19.142;2023-11-21T03:00:09;4.10;99.90
9329;DHT22;4703;48.748;19.142;2023-11-21T03:02:41;4.10;99.90
9329;DHT22;4703;48.748;19.142;2023-11-21T03:05:09;4.00;99.90
9329;DHT22;4703;48.748;19.142;2023-11-21T03:07:37;4.10;99.90
9329;DHT22;4703;48.748;19.142;2023-11-21T03:10:06;4.00;99.90
9329;DHT22;4703;48.748;19.142;2023-11-21T03:12:36;4.00;99.90
9329;DHT22;4703;48.748;19.142;2023-11-21T03:15:07;5.90;99.90
9329;DHT22;4703;48.748;19.142;2023-11-21T03:17:35;4.00;99.90
9329;DHT22;4703;48.748;19.142;2023-11-21T03:20:03;4.00;99.90
9329;DHT22;4703;48.748;19.142;2023-11-21T03:22:31;3.90;99.90
9329;DHT22;4703;48.748;19.142;2023-11-21T03:24:58;3.90;99.90
9329;DHT22;4703;48.748;19.142;2023-11-21T03:27:25;3.90;99.90
9329;DHT22;4703;48.748;19.142;2023-11-21T03:29:53;3.80;99.90
9329;DHT22;4703;48.748;19.142;2023-11-21T03:32:21;3.80;99.90
9329;DHT22;4703;48.748;19.142;2023-11-21T03:34:57;3.70;99.90
9329;DHT22;4703;48.748;19.142;2023-11-21T03:37:26;3.80;99.90
9329;DHT22;4703;48.748;19.142;2023-11-21T03:39:56;3.80;99.90
9329;DHT22;4703;48.748;19.142;2023-11-21T03:42:24;3.80;99.90
9329;DHT22;4703;48.748;19.142;2023-11-21T03:44:53;3.80;99.90
9329;DHT22;4703;48.748;19.142;2023-11-21T03:47:21;3.80;99.90
9329;DHT22;4703;48.748;19.142;2023-11-21T03:49:48;3.90;99.90
9329;DHT22;4703;48.748;19.142;2023-11-21T03:52:15;3.90;99.90
9329;DHT22;4703;48.748;19.142;2023-11-21T03:54:42;3.90;99.90
9329;DHT22;4703;48.748;19.142;2023-11-21T03:57:11;3.90;99.90
9329;DHT22;4703;48.748;19.142;2023-11-21T03:59:42;6.70;99.90
9329;DHT22;4703;48.748;19.142;2023-11-21T04:02:10;3.90;99.90
9329;DHT22;4703;48.748;19.142;2023-11-21T04:04:37;3.80;99.90
9329;DHT22;4703;48.748;19.142;2023-11-21T04:07:04;3.90;99.90
9329;DHT22;4703;48.748;19.142;2023-11-21T04:09:31;3.80;99.90
9329;DHT22;4703;48.748;19.142;2023-11-21T04:11:58;3.90;99.90
9329;DHT22;4703;48.748;19.142;2023-11-21T04:14:25;3.90;99.90
9329;DHT22;4703;48.748;19.142;2023-11-21T04:16:52;3.90;99.90
9329;DHT22;4703;48.748;19.142;2023-11-21T04:19:20;3.80;99.90
9329;DHT22;4703;48.748;19.142;2023-11-21T04:21:47;3.80;99.90
9329;DHT22;4703;48.748;19.142;2023-11-21T04:24:14;3.80;99.90
9329;DHT22;4703;48.748;19.142;2023-11-21T04:26:43;3.80;99.90
9329;DHT22;4703;48.748;19.142;2023-11-21T04:29:10;3.80;99.90
9329;DHT22;4703;48.748;19.142;2023-11-21T04:31:37;3.80;99.90
9329;DHT22;4703;48.748;19.142;2023-11-21T04:34:05;3.80;99.90
9329;DHT22;4703;48.748;19.142;2023-11-21T04:36:32;3.80;99.90
9329;DHT22;4703;48.748;19.142;2023-11-21T04:38:59;3.70;99.90
9329;DHT22;4703;48.748;19.142;2023-11-21T04:41:26;3.70;99.90
9329;DHT22;4703;48.748;19.142;2023-11-21T04:43:53;3.70;99.90
9329;DHT22;4703;48.748;19.142;2023-11-21T04:46:20;3.70;99.90
9329;DHT22;4703;48.748;19.142;2023-11-21T04:48:48;3.70;99.90
9329;DHT22;4703;48.748;19.142;2023-11-21T04:51:15;3.70;99.90
9329;DHT22;4703;48.748;19.142;2023-11-21T04:53:44;4.60;99.90
9329;DHT22;4703;48.748;19.142;2023-11-21T04:56:11;3.60;99.90
9329;DHT22;4703;48.748;19.142;2023-11-21T04:58:38;3.60;99.90
9329;DHT22;4703;48.748;19.142;2023-11-21T05:01:07;3.60;99.90
9329;DHT22;4703;48.748;19.142;2023-11-21T05:03:35;3.60;99.90
9329;DHT22;4703;48.748;19.142;2023-11-21T05:06:02;3.60;99.90
9329;DHT22;4703;48.748;19.142;2023-11-21T05:08:31;5.80;99.90
9329;DHT22;4703;48.748;19.142;2023-11-21T05:10:58;3.60;99.90
9329;DHT22;4703;48.748;19.142;2023-11-21T05:13:25;3.60;99.90
9329;DHT22;4703;48.748;19.142;2023-11-21T05:15:55;3.40;99.90
9329;DHT22;4703;48.748;19.142;2023-11-21T05:18:25;3.50;99.90
9329;DHT22;4703;48.748;19.142;2023-11-21T05:20:56;3.50;99.90
9329;DHT22;4703;48.748;19.142;2023-11-21T05:23:24;3.50;99.90
9329;DHT22;4703;48.748;19.142;2023-11-21T05:25:51;3.50;99.90
9329;DHT22;4703;48.748;19.142;2023-11-21T05:28:18;3.50;99.90
9329;DHT22;4703;48.748;19.142;2023-11-21T05:30:45;4.20;99.90
9329;DHT22;4703;48.748;19.142;2023-11-21T05:33:12;3.50;99.90
9329;DHT22;4703;48.748;19.142;2023-11-21T05:35:39;3.50;99.90
9329;DHT22;4703;48.748;19.142;2023-11-21T05:38:06;3.50;99.90
9329;DHT22;4703;48.748;19.142;2023-11-21T05:40:33;3.50;99.90
9329;DHT22;4703;48.748;19.142;2023-11-21T05:43:00;3.40;99.90
9329;DHT22;4703;48.748;19.142;2023-11-21T05:45:27;3.40;99.90
9329;DHT22;4703;48.748;19.142;2023-11-21T05:47:55;3.40;99.90
9329;DHT22;4703;48.748;19.142;2023-11-21T05:50:22;3.40;99.90
9329;DHT22;4703;48.748;19.142;2023-11-21T05:52:50;3.40;99.90
9329;DHT22;4703;48.748;19.142;2023-11-21T05:55:17;5.40;99.90
9329;DHT22;4703;48.748;19.142;2023-11-21T05:57:44;3.00;99.90
9329;DHT22;4703;48.748;19.142;2023-11-21T06:00:13;3.40;99.90
9329;DHT22;4703;48.748;19.142;2023-11-21T06:02:49;3.50;99.90
9329;DHT22;4703;48.748;19.142;2023-11-21T06:05:22;3.40;99.90
9329;DHT22;4703;48.748;19.142;2023-11-21T06:07:51;3.50;99.90
9329;DHT22;4703;48.748;19.142;2023-11-21T06:10:22;3.40;99.90
9329;DHT22;4703;48.748;19.142;2023-11-21T06:12:52;3.50;99.90
9329;DHT22;4703;48.748;19.142;2023-11-21T06:15:19;3.40;99.90
9329;DHT22;4703;48.748;19.142;2023-11-21T06:17:48;4.00;99.90
9329;DHT22;4703;48.748;19.142;2023-11-21T06:20:21;3.40;99.90
9329;DHT22;4703;48.748;19.142;2023-11-21T06:22:50;3.40;99.90
9329;DHT22;4703;48.748;19.142;2023-11-21T06:25:18;3.40;99.90
9329;DHT22;4703;48.748;19.142;2023-11-21T06:27:47;3.40;99.90
9329;DHT22;4703;48.748;19.142;2023-11-21T06:30:14;3.40;99.90
9329;DHT22;4703;48.748;19.142;2023-11-21T06:32:43;3.40;99.90
9329;DHT22;4703;48.748;19.142;2023-11-21T06:35:14;3.40;99.90
9329;DHT22;4703;48.748;19.142;2023-11-21T06:37:44;3.50;99.90
9329;DHT22;4703;48.748;19.142;2023-11-21T06:40:15;3.50;99.90
9329;DHT22;4703;48.748;19.142;2023-11-21T06:42:45;3.40;99.90
9329;DHT22;4703;48.748;19.142;2023-11-21T06:45:13;3.40;99.90
9329;DHT22;4703;48.748;19.142;2023-11-21T06:47:41;3.40;99.90
9329;DHT22;4703;48.748;19.142;2023-11-21T06:50:09;3.40;99.90
9329;DHT22;4703;48.748;19.142;2023-11-21T06:52:36;3.40;99.90
9329;DHT22;4703;48.748;19.142;2023-11-21T06:55:04;4.60;99.90
9329;DHT22;4703;48.748;19.142;2023-11-21T06:57:31;3.40;99.90
9329;DHT22;4703;48.748;19.142;2023-11-21T06:59:59;3.40;99.90
9329;DHT22;4703;48.748;19.142;2023-11-21T07:02:26;3.30;99.90
9329;DHT22;4703;48.748;19.142;2023-11-21T07:04:53;3.30;99.90
9329;DHT22;4703;48.748;19.142;2023-11-21T07:07:20;3.30;99.90
9329;DHT22;4703;48.748;19.142;2023-11-21T07:09:47;3.40;99.90
9329;DHT22;4703;48.748;19.142;2023-11-21T07:12:15;3.30;99.90
9329;DHT22;4703;48.748;19.142;2023-11-21T07:14:42;3.40;99.90
9329;DHT22;4703;48.748;19.142;2023-11-21T07:17:11;3.30;99.90
9329;DHT22;4703;48.748;19.142;2023-11-21T07:19:38;3.30;99.90
9329;DHT22;4703;48.748;19.142;2023-11-21T07:22:06;3.30;99.90
9329;DHT22;4703;48.748;19.142;2023-11-21T07:24:33;3.40;99.90
9329;DHT22;4703;48.748;19.142;2023-11-21T07:27:00;3.40;99.90
9329;DHT22;4703;48.748;19.142;2023-11-21T07:29:27;3.30;99.90
9329;DHT22;4703;48.748;19.142;2023-11-21T07:31:56;4.60;99.90
9329;DHT22;4703;48.748;19.142;2023-11-21T07:34:23;3.40;99.90
9329;DHT22;4703;48.748;19.142;2023-11-21T07:36:50;3.40;99.90
9329;DHT22;4703;48.748;19.142;2023-11-21T07:39:17;3.40;99.90
9329;DHT22;4703;48.748;19.142;2023-11-21T07:41:45;3.50;99.90
9329;DHT22;4703;48.748;19.142;2023-11-21T07:44:16;3.50;99.90
9329;DHT22;4703;48.748;19.142;2023-11-21T07:46:44;3.60;99.90
9329;DHT22;4703;48.748;19.142;2023-11-21T07:49:12;3.60;99.90
9329;DHT22;4703;48.748;19.142;2023-11-21T07:51:43;3.70;99.90
9329;DHT22;4703;48.748;19.142;2023-11-21T07:54:11;3.70;99.90
9329;DHT22;4703;48.748;19.142;2023-11-21T07:56:38;3.80;99.90
9329;DHT22;4703;48.748;19.142;2023-11-21T07:59:05;3.80;99.90
9329;DHT22;4703;48.748;19.142;2023-11-21T08:01:32;3.90;99.90
9329;DHT22;4703;48.748;19.142;2023-11-21T08:04:00;3.90;99.90
9329;DHT22;4703;48.748;19.142;2023-11-21T08:06:30;4.00;99.90
9329;DHT22;4703;48.748;19.142;2023-11-21T08:08:58;4.00;99.90
9329;DHT22;4703;48.748;19.142;2023-11-21T08:11:25;4.10;99.90
9329;DHT22;4703;48.748;19.142;2023-11-21T08:13:55;4.10;99.90
9329;DHT22;4703;48.748;19.142;2023-11-21T08:16:23;4.20;99.90
9329;DHT22;4703;48.748;19.142;2023-11-21T08:18:51;6.70;99.90
9329;DHT22;4703;48.748;19.142;2023-11-21T08:21:18;4.30;99.90
9329;DHT22;4703;48.748;19.142;2023-11-21T08:23:46;4.40;99.90
9329;DHT22;4703;48.748;19.142;2023-11-21T08:26:16;4.50;99.90
9329;DHT22;4703;48.748;19.142;2023-11-21T08:28:43;7.40;99.90
9329;DHT22;4703;48.748;19.142;2023-11-21T08:31:10;6.00;99.90
9329;DHT22;4703;48.748;19.142;2023-11-21T08:33:39;4.70;99.90
9329;DHT22;4703;48.748;19.142;2023-11-21T08:36:08;4.70;99.90
9329;DHT22;4703;48.748;19.142;2023-11-21T08:38:36;4.80;99.90
9329;DHT22;4703;48.748;19.142;2023-11-21T08:41:06;4.90;99.90
9329;DHT22;4703;48.748;19.142;2023-11-21T08:43:35;3.90;99.90
9329;DHT22;4703;48.748;19.142;2023-11-21T08:46:07;5.20;99.90
9329;DHT22;4703;48.748;19.142;2023-11-21T08:48:36;5.20;99.90
9329;DHT22;4703;48.748;19.142;2023-11-21T08:51:04;5.40;99.90
9329;DHT22;4703;48.748;19.142;2023-11-21T08:53:31;5.60;99.90
9329;DHT22;4703;48.748;19.142;2023-11-21T08:55:59;5.70;99.90
9329;DHT22;4703;48.748;19.142;2023-11-21T08:58:27;5.90;99.90
9329;DHT22;4703;48.748;19.142;2023-11-21T09:00:54;7.80;99.90
9329;DHT22;4703;48.748;19.142;2023-11-21T09:03:21;6.30;99.90
9329;DHT22;4703;48.748;19.142;2023-11-21T09:05:48;6.50;99.90
9329;DHT22;4703;48.748;19.142;2023-11-21T09:08:15;6.70;99.90
9329;DHT22;4703;48.748;19.142;2023-11-21T09:10:44;6.90;99.90
9329;DHT22;4703;48.748;19.142;2023-11-21T09:13:13;7.20;99.90
9329;DHT22;4703;48.748;19.142;2023-11-21T09:15:43;7.40;99.90
9329;DHT22;4703;48.748;19.142;2023-11-21T09:18:15;7.60;99.90
9329;DHT22;4703;48.748;19.142;2023-11-21T09:20:42;7.80;99.90
9329;DHT22;4703;48.748;19.142;2023-11-21T09:23:11;8.00;99.90
9329;DHT22;4703;48.748;19.142;2023-11-21T09:25:38;10.20;99.90
9329;DHT22;4703;48.748;19.142;2023-11-21T09:28:05;8.50;99.90
9329;DHT22;4703;48.748;19.142;2023-11-21T09:30:36;9.20;99.90
9329;DHT22;4703;48.748;19.142;2023-11-21T09:33:03;8.90;99.90
9329;DHT22;4703;48.748;19.142;2023-11-21T09:35:35;10.70;99.90
9329;DHT22;4703;48.748;19.142;2023-11-21T09:38:02;10.00;99.90
9329;DHT22;4703;48.748;19.142;2023-11-21T09:40:32;11.50;99.90
9329;DHT22;4703;48.748;19.142;2023-11-21T09:42:59;9.20;99.90
9329;DHT22;4703;48.748;19.142;2023-11-21T09:45:34;9.20;99.90
9329;DHT22;4703;48.748;19.142;2023-11-21T09:48:02;9.30;99.90
9329;DHT22;4703;48.748;19.142;2023-11-21T09:50:29;9.40;99.90
9329;DHT22;4703;48.748;19.142;2023-11-21T09:55:48;9.30;99.90
9329;DHT22;4703;48.748;19.142;2023-11-21T09:58:19;11.90;99.90
9329;DHT22;4703;48.748;19.142;2023-11-21T10:00:47;11.00;99.90
9329;DHT22;4703;48.748;19.142;2023-11-21T10:03:16;8.90;99.90
9329;DHT22;4703;48.748;19.142;2023-11-21T10:05:44;11.20;99.90
9329;DHT22;4703;48.748;19.142;2023-11-21T10:08:14;9.90;99.90
9329;DHT22;4703;48.748;19.142;2023-11-21T10:10:46;9.70;99.90
9329;DHT22;4703;48.748;19.142;2023-11-21T10:13:15;8.50;99.90
9329;DHT22;4703;48.748;19.142;2023-11-21T10:15:50;8.30;99.90
9329;DHT22;4703;48.748;19.142;2023-11-21T10:18:18;8.20;99.90
9329;DHT22;4703;48.748;19.142;2023-11-21T10:20:45;8.10;99.90
9329;DHT22;4703;48.748;19.142;2023-11-21T10:23:21;8.10;99.90
9329;DHT22;4703;48.748;19.142;2023-11-21T10:25:51;8.10;99.90
9329;DHT22;4703;48.748;19.142;2023-11-21T10:28:19;9.90;99.90
9329;DHT22;4703;48.748;19.142;2023-11-21T10:30:48;8.00;99.90
9329;DHT22;4703;48.748;19.142;2023-11-21T10:33:15;7.90;99.90
9329;DHT22;4703;48.748;19.142;2023-11-21T10:35:48;8.00;99.90
9329;DHT22;4703;48.748;19.142;2023-11-21T10:38:18;8.00;99.90
9329;DHT22;4703;48.748;19.142;2023-11-21T10:40:47;9.60;99.90
9329;DHT22;4703;48.748;19.142;2023-11-21T10:43:16;8.00;99.90
9329;DHT22;4703;48.748;19.142;2023-11-21T10:45:44;8.00;99.90
9329;DHT22;4703;48.748;19.142;2023-11-21T10:48:15;9.20;99.90
9329;DHT22;4703;48.748;19.142;2023-11-21T10:50:46;8.00;99.90
9329;DHT22;4703;48.748;19.142;2023-11-21T10:53:14;8.00;99.90
9329;DHT22;4703;48.748;19.142;2023-11-21T10:55:42;8.10;99.90
9329;DHT22;4703;48.748;19.142;2023-11-21T10:58:13;9.70;99.90
9329;DHT22;4703;48.748;19.142;2023-11-21T11:00:41;8.20;99.90
9329;DHT22;4703;48.748;19.142;2023-11-21T11:03:09;9.30;99.90
9329;DHT22;4703;48.748;19.142;2023-11-21T11:05:44;9.70;99.90
9329;DHT22;4703;48.748;19.142;2023-11-21T11:08:21;8.40;99.90
9329;DHT22;4703;48.748;19.142;2023-11-21T11:10:54;8.50;99.90
9329;DHT22;4703;48.748;19.142;2023-11-21T11:13:22;8.70;99.90
9329;DHT22;4703;48.748;19.142;2023-11-21T11:15:50;8.60;99.90
9329;DHT22;4703;48.748;19.142;2023-11-21T11:18:17;8.70;99.90
9329;DHT22;4703;48.748;19.142;2023-11-21T11:20:46;8.90;99.90
9329;DHT22;4703;48.748;19.142;2023-11-21T11:23:49;8.90;99.90
9329;DHT22;4703;48.748;19.142;2023-11-21T11:32:49;9.60;99.90
9329;DHT22;4703;48.748;19.142;2023-11-21T11:35:32;9.90;99.90
9329;DHT22;4703;48.748;19.142;2023-11-21T11:38:01;10.00;99.90
9329;DHT22;4703;48.748;19.142;2023-11-21T11:40:41;10.20;99.90
9329;DHT22;4703;48.748;19.142;2023-11-21T11:43:12;10.40;99.90
9329;DHT22;4703;48.748;19.142;2023-11-21T11:45:39;12.00;99.90
9329;DHT22;4703;48.748;19.142;2023-11-21T11:48:11;12.10;99.90
9329;DHT22;4703;48.748;19.142;2023-11-21T11:51:04;12.00;99.90
9329;DHT22;4703;48.748;19.142;2023-11-21T11:53:43;10.90;99.90
9329;DHT22;4703;48.748;19.142;2023-11-21T11:56:29;11.10;99.90
9329;DHT22;4703;48.748;19.142;2023-11-21T11:59:03;11.10;99.90
9329;DHT22;4703;48.748;19.142;2023-11-21T12:01:32;11.10;99.90
9329;DHT22;4703;48.748;19.142;2023-11-21T12:07:00;11.30;99.90
9329;DHT22;4703;48.748;19.142;2023-11-21T12:09:31;11.40;99.90
9329;DHT22;4703;48.748;19.142;2023-11-21T12:11:58;11.30;99.90
9329;DHT22;4703;48.748;19.142;2023-11-21T12:14:26;12.70;99.90
9329;DHT22;4703;48.748;19.142;2023-11-21T12:16:54;11.30;99.90
9329;DHT22;4703;48.748;19.142;2023-11-21T12:19:21;12.70;99.90
9329;DHT22;4703;48.748;19.142;2023-11-21T12:21:49;11.70;99.90
9329;DHT22;4703;48.748;19.142;2023-11-21T12:24:16;13.00;99.90
9329;DHT22;4703;48.748;19.142;2023-11-21T12:26:43;12.70;99.90
9329;DHT22;4703;48.748;19.142;2023-11-21T12:29:11;12.40;99.90
9329;DHT22;4703;48.748;19.142;2023-11-21T12:31:38;13.40;99.70
9329;DHT22;4703;48.748;19.142;2023-11-21T12:34:07;12.40;98.80
9329;DHT22;4703;48.748;19.142;2023-11-21T12:36:35;11.50;99.70
9329;DHT22;4703;48.748;19.142;2023-11-21T12:39:03;12.00;99.70
9329;DHT22;4703;48.748;19.142;2023-11-21T12:41:30;11.80;99.10
9329;DHT22;4703;48.748;19.142;2023-11-21T12:43:57;13.40;99.90
9329;DHT22;4703;48.748;19.142;2023-11-21T12:46:25;12.30;98.00
9329;DHT22;4703;48.748;19.142;2023-11-21T12:48:56;13.20;97.90
9329;DHT22;4703;48.748;19.142;2023-11-21T12:51:25;13.00;97.80
9329;DHT22;4703;48.748;19.142;2023-11-21T12:53:52;12.10;97.20
9329;DHT22;4703;48.748;19.142;2023-11-21T12:56:22;12.50;96.50
9329;DHT22;4703;48.748;19.142;2023-11-21T12:58:54;12.10;96.40
9329;DHT22;4703;48.748;19.142;2023-11-21T13:01:25;12.40;96.20
9329;DHT22;4703;48.748;19.142;2023-11-21T13:03:57;11.90;95.90
9329;DHT22;4703;48.748;19.142;2023-11-21T13:06:25;11.90;96.00
9329;DHT22;4703;48.748;19.142;2023-11-21T13:08:54;12.80;96.30
9329;DHT22;4703;48.748;19.142;2023-11-21T13:11:24;13.00;96.50
9329;DHT22;4703;48.748;19.142;2023-11-21T13:13:53;12.70;96.40
9329;DHT22;4703;48.748;19.142;2023-11-21T13:16:21;12.60;97.00
9329;DHT22;4703;48.748;19.142;2023-11-21T13:18:48;13.40;96.80
9329;DHT22;4703;48.748;19.142;2023-11-21T13:21:15;12.50;96.70
9329;DHT22;4703;48.748;19.142;2023-11-21T13:23:44;12.30;96.40
9329;DHT22;4703;48.748;19.142;2023-11-21T13:26:13;12.90;96.20
9329;DHT22;4703;48.748;19.142;2023-11-21T13:28:41;12.50;95.50
9329;DHT22;4703;48.748;19.142;2023-11-21T13:31:13;13.40;96.00
9329;DHT22;4703;48.748;19.142;2023-11-21T13:33:53;13.50;95.60
9329;DHT22;4703;48.748;19.142;2023-11-21T13:36:31;13.60;95.50
9329;DHT22;4703;48.748;19.142;2023-11-21T13:39:01;14.10;95.80
9329;DHT22;4703;48.748;19.142;2023-11-21T13:41:37;11.90;95.90
9329;DHT22;4703;48.748;19.142;2023-11-21T13:44:05;11.60;96.00
9329;DHT22;4703;48.748;19.142;2023-11-21T13:46:45;11.40;96.10
9329;DHT22;4703;48.748;19.142;2023-11-21T13:49:13;13.10;97.20
9329;DHT22;4703;48.748;19.142;2023-11-21T13:51:41;11.80;96.60
9329;DHT22;4703;48.748;19.142;2023-11-21T13:54:11;12.20;97.70
9329;DHT22;4703;48.748;19.142;2023-11-21T13:56:38;12.50;97.90
9329;DHT22;4703;48.748;19.142;2023-11-21T13:59:07;11.50;98.50
9329;DHT22;4703;48.748;19.142;2023-11-21T14:02:06;12.30;99.60
9329;DHT22;4703;48.748;19.142;2023-11-21T14:04:46;10.10;99.10
9329;DHT22;4703;48.748;19.142;2023-11-21T14:07:25;10.00;99.60
9329;DHT22;4703;48.748;19.142;2023-11-21T14:10:05;9.80;99.90
9329;DHT22;4703;48.748;19.142;2023-11-21T14:12:36;9.70;99.90
9329;DHT22;4703;48.748;19.142;2023-11-21T14:15:06;10.30;99.90
9329;DHT22;4703;48.748;19.142;2023-11-21T14:17:36;9.40;99.90
9329;DHT22;4703;48.748;19.142;2023-11-21T14:20:07;9.30;99.90
9329;DHT22;4703;48.748;19.142;2023-11-21T14:22:41;9.20;99.90
9329;DHT22;4703;48.748;19.142;2023-11-21T14:25:09;10.60;99.90
9329;DHT22;4703;48.748;19.142;2023-11-21T14:27:38;10.40;99.90
9329;DHT22;4703;48.748;19.142;2023-11-21T14:30:05;10.80;99.90
9329;DHT22;4703;48.748;19.142;2023-11-21T14:32:33;8.90;99.90
9329;DHT22;4703;48.748;19.142;2023-11-21T14:35:01;8.80;99.90
9329;DHT22;4703;48.748;19.142;2023-11-21T14:37:30;8.70;99.90
9329;DHT22;4703;48.748;19.142;2023-11-21T14:39:57;8.60;99.90
9329;DHT22;4703;48.748;19.142;2023-11-21T14:42:24;9.90;99.90
9329;DHT22;4703;48.748;19.142;2023-11-21T14:44:56;10.30;99.90
9329;DHT22;4703;48.748;19.142;2023-11-21T14:47:26;10.30;99.90
9329;DHT22;4703;48.748;19.142;2023-11-21T14:49:54;8.30;99.90
9329;DHT22;4703;48.748;19.142;2023-11-21T14:52:23;8.20;99.90
9329;DHT22;4703;48.748;19.142;2023-11-21T14:55:04;8.10;99.90
9329;DHT22;4703;48.748;19.142;2023-11-21T14:57:50;8.10;99.90
9329;DHT22;4703;48.748;19.142;2023-11-21T15:00:19;10.20;99.90
9329;DHT22;4703;48.748;19.142;2023-11-21T15:03:03;8.00;99.90
9329;DHT22;4703;48.748;19.142;2023-11-21T15:05:31;7.90;99.90
9329;DHT22;4703;48.748;19.142;2023-11-21T15:07:58;7.90;99.90
9329;DHT22;4703;48.748;19.142;2023-11-21T15:10:40;7.80;99.90
9329;DHT22;4703;48.748;19.142;2023-11-21T15:13:16;7.80;99.90
9329;DHT22;4703;48.748;19.142;2023-11-21T15:15:43;10.10;99.90
9329;DHT22;4703;48.748;19.142;2023-11-21T15:18:10;7.70;99.90
9329;DHT22;4703;48.748;19.142;2023-11-21T15:20:40;9.80;99.90
9329;DHT22;4703;48.748;19.142;2023-11-21T15:23:09;7.60;99.90
9329;DHT22;4703;48.748;19.142;2023-11-21T15:25:36;7.90;99.90
9329;DHT22;4703;48.748;19.142;2023-11-21T15:28:03;7.50;99.90
9329;DHT22;4703;48.748;19.142;2023-11-21T15:30:31;7.40;99.90
9329;DHT22;4703;48.748;19.142;2023-11-21T15:33:00;9.80;99.90
9329;DHT22;4703;48.748;19.142;2023-11-21T15:35:27;7.40;99.90
9329;DHT22;4703;48.748;19.142;2023-11-21T15:37:54;7.30;99.90
9329;DHT22;4703;48.748;19.142;2023-11-21T15:40:26;7.20;99.90
9329;DHT22;4703;48.748;19.142;2023-11-21T15:42:53;7.20;99.90
9329;DHT22;4703;48.748;19.142;2023-11-21T15:45:20;7.10;99.90
9329;DHT22;4703;48.748;19.142;2023-11-21T15:47:51;9.00;99.90
9329;DHT22;4703;48.748;19.142;2023-11-21T15:50:20;7.00;99.90
9329;DHT22;4703;48.748;19.142;2023-11-21T15:52:47;7.00;99.90
9329;DHT22;4703;48.748;19.142;2023-11-21T15:55:24;9.50;99.90
9329;DHT22;4703;48.748;19.142;2023-11-21T15:57:52;6.90;99.90
9329;DHT22;4703;48.748;19.142;2023-11-21T16:00:19;6.90;99.90
9329;DHT22;4703;48.748;19.142;2023-11-21T16:02:49;6.80;99.90
9329;DHT22;4703;48.748;19.142;2023-11-21T16:05:16;6.80;99.90
9329;DHT22;4703;48.748;19.142;2023-11-21T16:07:44;6.80;99.90
9329;DHT22;4703;48.748;19.142;2023-11-21T16:10:12;6.70;99.90
9329;DHT22;4703;48.748;19.142;2023-11-21T16:12:41;6.70;99.90
9329;DHT22;4703;48.748;19.142;2023-11-21T16:15:09;6.70;99.90
9329;DHT22;4703;48.748;19.142;2023-11-21T16:17:37;6.70;99.90
9329;DHT22;4703;48.748;19.142;2023-11-21T16:20:05;6.70;99.90
9329;DHT22;4703;48.748;19.142;2023-11-21T16:22:37;6.60;99.90